CheckWX is a tool to help pilots better visualize weather data.  It is not intended as a substitute for an official pre-flight weather briefing.

12:28:53 UTC

KSYM TAF
Morehead-Rowan County Clyde A Thomas Regional Airport
Morehead, Kentucky, USA
KSYM 161120Z 1612/1712 00000KT 6SM BR OVC100 FM161300 VRB03KT P6SM BKN100 FM170400 VRB04KT P6SM BKN050

Jul-16@
12:00 UTC

Jul-16 @ 12:00 UTC

Jul-16@
13:00 UTC

Jul-16 @ 13:00 UTC

KSYM 161120Z 1612/1712 00000KT 6SM BR OVC100
Conditions
Mist
Cloud Levels
  • Overcast at 10,000' AGL

Jul-16@
13:00 UTC

Jul-16 @ 13:00 UTC

Jul-17@
04:00 UTC

Jul-17 @ 04:00 UTC

FM161300 VRB03KT P6SM BKN100

From

From Standard forecast or significant change

Wind
  • Variable at 3 KTS
Cloud Levels
  • Broken at 10,000' AGL

Jul-17@
04:00 UTC

Jul-17 @ 04:00 UTC

Jul-17@
12:00 UTC

Jul-17 @ 12:00 UTC

FM170400 VRB04KT P6SM BKN050

From

From Standard forecast or significant change

Wind
  • Variable at 4 KTS
Cloud Levels
  • Broken at 5,000' AGL